Time;durP1;ratioP1;P1;durP2;ratioP2;P2;SDS_P1;SDS_P2;PMS_P1;PMS_P2;Temp;Humidity;BMP_temperature;BMP_pressure;BME280_temperature;BME280_humidity;BME280_pressure;Samples;Min_cycle;Max_cycle;Signal;HPM_P1;HPM_P2
2023/04/10 00:00:05;;;;;;;;;;;7.50;99.90;;;;;;4929140;29;19930;-93
2023/04/10 00:02:32;;;;;;;;;;;7.50;99.90;;;;;;4937979;28;19935;-91
2023/04/10 00:05:01;;;;;;;;;;;7.40;99.90;;;;;;4920174;29;19931;-90
2023/04/10 00:07:30;;;;;;;;;;;7.40;99.90;;;;;;4933688;29;20212;-91
2023/04/10 00:09:59;;;;;;;;;;;7.40;99.90;;;;;;4945965;29;19930;-92
2023/04/10 00:12:26;;;;;;;;;;;7.40;99.90;;;;;;4936410;29;19926;-94
2023/04/10 00:14:53;;;;;;;;;;;7.30;99.90;;;;;;4934625;29;19926;-91
2023/04/10 00:17:21;;;;;;;;;;;7.40;99.90;;;;;;4926331;29;19933;-92
2023/04/10 00:19:50;;;;;;;;;;;7.30;99.90;;;;;;4923021;28;19974;-91
2023/04/10 00:22:17;;;;;;;;;;;7.30;99.90;;;;;;4921391;29;19952;-91
2023/04/10 00:24:45;;;;;;;;;;;7.30;99.90;;;;;;4944381;29;20237;-92
2023/04/10 00:27:13;;;;;;;;;;;7.30;99.90;;;;;;4960115;28;19934;-95
2023/04/10 00:29:44;;;;;;;;;;;7.30;99.90;;;;;;4940547;28;19915;-94
2023/04/10 00:32:11;;;;;;;;;;;7.30;99.90;;;;;;4935298;28;19933;-91
2023/04/10 00:34:41;;;;;;;;;;;7.20;99.90;;;;;;4940658;29;19931;-93
2023/04/10 00:37:08;;;;;;;;;;;7.30;99.90;;;;;;4922972;29;20021;-91
2023/04/10 00:39:38;;;;;;;;;;;7.20;99.90;;;;;;4927798;29;19930;-92
2023/04/10 00:42:08;;;;;;;;;;;7.20;99.90;;;;;;4927428;29;19938;-91
2023/04/10 00:44:36;;;;;;;;;;;7.20;99.90;;;;;;4946381;29;20029;-91
2023/04/10 00:47:18;;;;;;;;;;;7.20;99.90;;;;;;4928181;29;20356;-90
2023/04/10 00:49:45;;;;;;;;;;;7.20;99.90;;;;;;4932836;29;19933;-91
2023/04/10 00:52:13;;;;;;;;;;;7.10;99.90;;;;;;4940546;29;20013;-91
2023/04/10 00:54:41;;;;;;;;;;;7.10;99.90;;;;;;4934910;29;19968;-91
2023/04/10 00:57:13;;;;;;;;;;;7.10;99.90;;;;;;4938777;29;20425;-91
2023/04/10 00:59:44;;;;;;;;;;;7.10;99.90;;;;;;4929091;29;20302;-91
2023/04/10 01:02:12;;;;;;;;;;;7.10;99.90;;;;;;4943402;28;19927;-92
2023/04/10 01:04:40;;;;;;;;;;;7.00;99.90;;;;;;4915762;29;19927;-90
2023/04/10 01:07:10;;;;;;;;;;;7.10;99.90;;;;;;4919862;29;19951;-91
2023/04/10 01:09:44;;;;;;;;;;;7.00;99.90;;;;;;4920401;29;19938;-90
2023/04/10 01:12:23;;;;;;;;;;;7.00;99.90;;;;;;4927414;29;19927;-91
2023/04/10 01:14:55;;;;;;;;;;;7.00;99.90;;;;;;4916420;29;19926;-90
2023/04/10 01:17:28;;;;;;;;;;;7.00;99.90;;;;;;4921828;29;19993;-91
2023/04/10 01:20:02;;;;;;;;;;;7.00;99.90;;;;;;4925513;29;19927;-91
2023/04/10 01:22:33;;;;;;;;;;;6.90;99.90;;;;;;4934628;29;20401;-92
2023/04/10 01:25:05;;;;;;;;;;;6.90;99.90;;;;;;4923999;29;19927;-91
2023/04/10 01:27:44;;;;;;;;;;;6.90;99.90;;;;;;4940526;29;19928;-90
2023/04/10 01:30:17;;;;;;;;;;;6.90;99.90;;;;;;4922660;29;19941;-91
2023/04/10 01:32:44;;;;;;;;;;;6.90;99.90;;;;;;4924577;29;19927;-91
2023/04/10 01:35:15;;;;;;;;;;;6.90;99.90;;;;;;4916530;29;19970;-91
2023/04/10 01:37:43;;;;;;;;;;;6.90;99.90;;;;;;4927098;29;20021;-90
2023/04/10 01:40:14;;;;;;;;;;;6.80;99.90;;;;;;4934043;29;19982;-92
2023/04/10 01:42:44;;;;;;;;;;;6.80;99.90;;;;;;4923664;29;19955;-92
2023/04/10 01:45:17;;;;;;;;;;;6.80;99.90;;;;;;4921605;29;20279;-91
2023/04/10 01:47:46;;;;;;;;;;;6.80;99.90;;;;;;4918153;29;19958;-92
2023/04/10 01:50:14;;;;;;;;;;;6.80;99.90;;;;;;4927067;29;19934;-90
2023/04/10 01:52:42;;;;;;;;;;;6.80;99.90;;;;;;4920272;29;20341;-91
2023/04/10 01:55:31;;;;;;;;;;;6.70;99.90;;;;;;4936803;29;19933;-95
2023/04/10 01:58:03;;;;;;;;;;;6.80;99.90;;;;;;4934699;29;19931;-91
2023/04/10 02:00:37;;;;;;;;;;;6.70;99.90;;;;;;4930991;29;20353;-90
2023/04/10 02:03:07;;;;;;;;;;;6.70;99.90;;;;;;4926753;29;20405;-91
2023/04/10 02:05:38;;;;;;;;;;;6.70;99.90;;;;;;4938247;29;20457;-90
2023/04/10 02:08:08;;;;;;;;;;;6.70;99.90;;;;;;4938963;29;19930;-91
2023/04/10 02:10:45;;;;;;;;;;;6.70;99.90;;;;;;4923530;29;20365;-91
2023/04/10 02:13:15;;;;;;;;;;;6.60;99.90;;;;;;4935405;29;19926;-90
2023/04/10 02:15:46;;;;;;;;;;;6.60;99.90;;;;;;4919490;29;20401;-91
2023/04/10 02:18:15;;;;;;;;;;;6.60;99.90;;;;;;4925329;29;19933;-91
2023/04/10 02:20:43;;;;;;;;;;;6.60;99.90;;;;;;4937879;29;20389;-91
2023/04/10 02:23:13;;;;;;;;;;;6.60;99.90;;;;;;4920092;29;19926;-91
2023/04/10 02:25:40;;;;;;;;;;;6.60;99.90;;;;;;4922486;29;19930;-91
2023/04/10 02:28:08;;;;;;;;;;;6.60;99.90;;;;;;4931615;29;20408;-91
2023/04/10 02:30:35;;;;;;;;;;;6.60;99.90;;;;;;4984732;23;19953;-77
2023/04/10 02:33:03;;;;;;;;;;;6.50;99.90;;;;;;4931304;28;19934;-78
2023/04/10 02:35:31;;;;;;;;;;;6.50;99.90;;;;;;4944887;28;19926;-77
2023/04/10 02:37:58;;;;;;;;;;;6.50;99.90;;;;;;4959562;28;19926;-77
2023/04/10 02:40:25;;;;;;;;;;;6.50;99.90;;;;;;4951478;28;19926;-77
2023/04/10 02:42:59;;;;;;;;;;;6.50;99.90;;;;;;4949984;28;20487;-77
2023/04/10 02:45:26;;;;;;;;;;;6.40;99.90;;;;;;4936811;28;19933;-76
2023/04/10 02:47:53;;;;;;;;;;;6.50;99.90;;;;;;4953703;28;19995;-77
2023/04/10 02:50:22;;;;;;;;;;;6.40;99.90;;;;;;4949206;28;20304;-77
2023/04/10 02:52:48;;;;;;;;;;;6.40;99.90;;;;;;4951859;28;20464;-77
2023/04/10 02:55:15;;;;;;;;;;;6.40;99.90;;;;;;4980620;28;19926;-77
2023/04/10 02:57:42;;;;;;;;;;;6.40;99.90;;;;;;4949403;28;19927;-77
2023/04/10 03:00:10;;;;;;;;;;;6.40;99.90;;;;;;4952450;28;19962;-77
2023/04/10 03:03:09;;;;;;;;;;;6.30;99.90;;;;;;4939264;28;19926;-77
2023/04/10 03:05:48;;;;;;;;;;;6.40;99.90;;;;;;4952120;28;19931;-77
2023/04/10 03:08:16;;;;;;;;;;;6.30;99.90;;;;;;4953887;28;19927;-77
2023/04/10 03:10:43;;;;;;;;;;;6.30;99.90;;;;;;4952040;28;20481;-77
2023/04/10 03:13:10;;;;;;;;;;;6.30;99.90;;;;;;4955315;28;19976;-77
2023/04/10 03:15:37;;;;;;;;;;;6.30;99.90;;;;;;4957993;28;20455;-77
2023/04/10 03:18:04;;;;;;;;;;;6.30;99.90;;;;;;4946441;28;20633;-77
2023/04/10 03:20:31;;;;;;;;;;;6.20;99.90;;;;;;4952149;28;19926;-77
2023/04/10 03:23:00;;;;;;;;;;;6.20;99.90;;;;;;4941553;28;20320;-78
2023/04/10 03:25:27;;;;;;;;;;;6.20;99.90;;;;;;4982392;28;19933;-77
2023/04/10 03:27:54;;;;;;;;;;;6.20;99.90;;;;;;4953465;28;19931;-77
2023/04/10 03:30:22;;;;;;;;;;;6.20;99.90;;;;;;4953400;28;19930;-77
2023/04/10 03:32:49;;;;;;;;;;;6.20;99.90;;;;;;4949538;28;20174;-76
2023/04/10 03:35:16;;;;;;;;;;;6.20;99.90;;;;;;4960001;28;20304;-77
2023/04/10 03:37:43;;;;;;;;;;;6.10;99.90;;;;;;4951661;28;19926;-77
2023/04/10 03:40:15;;;;;;;;;;;6.20;99.90;;;;;;4954214;28;19934;-77
2023/04/10 03:42:41;;;;;;;;;;;6.10;99.90;;;;;;4946842;28;19934;-77
2023/04/10 03:45:09;;;;;;;;;;;6.10;99.90;;;;;;4954260;28;19931;-77
2023/04/10 03:47:36;;;;;;;;;;;6.10;99.90;;;;;;4951856;28;20007;-77
2023/04/10 03:50:06;;;;;;;;;;;6.10;99.90;;;;;;4949842;28;20390;-77
2023/04/10 03:52:41;;;;;;;;;;;6.10;99.90;;;;;;4964915;28;20009;-77
2023/04/10 03:55:17;;;;;;;;;;;6.00;99.90;;;;;;4946467;28;19934;-77
2023/04/10 03:57:45;;;;;;;;;;;6.00;99.90;;;;;;4978616;28;19938;-77
2023/04/10 04:00:12;;;;;;;;;;;6.00;99.90;;;;;;4967514;28;19926;-77
2023/04/10 04:02:50;;;;;;;;;;;6.00;99.90;;;;;;4946467;28;20009;-77
2023/04/10 04:05:56;;;;;;;;;;;6.00;99.90;;;;;;4968669;28;20432;-77
2023/04/10 04:08:37;;;;;;;;;;;6.00;99.90;;;;;;4960538;28;19937;-77
2023/04/10 04:11:17;;;;;;;;;;;6.00;99.90;;;;;;4952127;28;20032;-77
2023/04/10 04:14:07;;;;;;;;;;;6.00;99.90;;;;;;4942417;28;19926;-77
2023/04/10 04:16:52;;;;;;;;;;;6.00;99.90;;;;;;4946659;28;19973;-77
2023/04/10 04:19:38;;;;;;;;;;;5.90;99.90;;;;;;4955161;28;19932;-77
2023/04/10 04:22:23;;;;;;;;;;;5.90;99.90;;;;;;4953230;28;19933;-77
2023/04/10 04:25:10;;;;;;;;;;;5.90;99.90;;;;;;4949146;28;19974;-77
2023/04/10 04:28:17;;;;;;;;;;;5.90;99.90;;;;;;4968403;28;19926;-77
2023/04/10 04:31:04;;;;;;;;;;;5.90;99.90;;;;;;4959276;28;19950;-77
2023/04/10 04:33:49;;;;;;;;;;;5.90;99.90;;;;;;4951401;28;19937;-77
2023/04/10 04:36:39;;;;;;;;;;;5.90;99.90;;;;;;4976632;28;19933;-77
2023/04/10 04:39:14;;;;;;;;;;;5.80;99.90;;;;;;4951764;28;19993;-77
2023/04/10 04:41:54;;;;;;;;;;;5.80;99.90;;;;;;4982524;28;19934;-77
2023/04/10 04:44:34;;;;;;;;;;;5.80;99.90;;;;;;4947710;28;19957;-76
2023/04/10 04:47:16;;;;;;;;;;;5.80;99.90;;;;;;4983030;28;20512;-76
2023/04/10 04:49:52;;;;;;;;;;;5.80;99.90;;;;;;4944838;28;19926;-77
2023/04/10 04:52:22;;;;;;;;;;;5.70;99.90;;;;;;4950178;28;20350;-77
2023/04/10 04:55:24;;;;;;;;;;;5.70;99.90;;;;;;4943629;28;19926;-77
2023/04/10 04:57:59;;;;;;;;;;;5.70;99.90;;;;;;4951298;28;20305;-77
2023/04/10 05:00:27;;;;;;;;;;;5.70;99.90;;;;;;4951850;28;19981;-77
2023/04/10 05:02:54;;;;;;;;;;;5.70;99.90;;;;;;4950346;28;19927;-77
2023/04/10 05:05:37;;;;;;;;;;;5.70;99.90;;;;;;4945386;28;20309;-77
2023/04/10 05:08:22;;;;;;;;;;;5.70;99.90;;;;;;4953061;28;20407;-77
2023/04/10 05:11:24;;;;;;;;;;;5.70;99.90;;;;;;4930989;29;19927;-77
2023/04/10 05:14:15;;;;;;;;;;;5.60;99.90;;;;;;4950008;28;19934;-76
2023/04/10 05:17:09;;;;;;;;;;;5.60;99.90;;;;;;4933430;28;20009;-77
2023/04/10 05:19:53;;;;;;;;;;;5.60;99.90;;;;;;4945005;28;19934;-77
2023/04/10 05:22:39;;;;;;;;;;;5.60;99.90;;;;;;4947645;28;20304;-77
2023/04/10 05:25:26;;;;;;;;;;;5.60;99.90;;;;;;4950148;28;19934;-77
2023/04/10 05:28:11;;;;;;;;;;;5.60;99.90;;;;;;4955340;28;20372;-77
2023/04/10 05:31:01;;;;;;;;;;;5.60;99.90;;;;;;4950200;28;19927;-77
2023/04/10 05:33:48;;;;;;;;;;;5.50;99.90;;;;;;4952860;28;19934;-77
2023/04/10 05:36:37;;;;;;;;;;;5.60;99.90;;;;;;4954345;28;19934;-76
2023/04/10 05:39:30;;;;;;;;;;;5.50;99.90;;;;;;4944869;28;20009;-77
2023/04/10 05:42:22;;;;;;;;;;;5.50;99.90;;;;;;4942548;28;20423;-77
2023/04/10 05:44:54;;;;;;;;;;;5.50;99.90;;;;;;4968414;28;19934;-77
2023/04/10 05:47:31;;;;;;;;;;;5.40;99.90;;;;;;4964348;28;20033;-77
2023/04/10 05:50:12;;;;;;;;;;;5.40;99.90;;;;;;4947617;28;19934;-77
2023/04/10 05:53:14;;;;;;;;;;;5.50;99.90;;;;;;4942985;28;19938;-77
2023/04/10 05:56:01;;;;;;;;;;;5.50;99.90;;;;;;4952919;28;19931;-77
2023/04/10 05:58:43;;;;;;;;;;;5.40;99.90;;;;;;4950040;28;20013;-76
2023/04/10 06:01:13;;;;;;;;;;;5.40;99.90;;;;;;4944796;28;20417;-76
2023/04/10 06:03:46;;;;;;;;;;;5.40;99.90;;;;;;4951664;28;20531;-77
2023/04/10 06:06:15;;;;;;;;;;;5.40;99.90;;;;;;4954021;28;20436;-76
2023/04/10 06:08:43;;;;;;;;;;;5.40;99.90;;;;;;4956748;28;19931;-77
2023/04/10 06:11:09;;;;;;;;;;;5.30;99.90;;;;;;4958884;28;20455;-77
2023/04/10 06:13:36;;;;;;;;;;;5.30;99.90;;;;;;4954797;28;19975;-77
2023/04/10 06:16:04;;;;;;;;;;;5.30;99.90;;;;;;4954556;28;19927;-76
2023/04/10 06:18:32;;;;;;;;;;;5.30;99.90;;;;;;4957431;28;20409;-77
2023/04/10 06:21:00;;;;;;;;;;;5.30;99.90;;;;;;4952344;28;19926;-77
2023/04/10 06:23:28;;;;;;;;;;;5.30;99.90;;;;;;4953308;28;19938;-77
2023/04/10 06:25:55;;;;;;;;;;;5.20;99.90;;;;;;4948774;28;19938;-76
2023/04/10 06:28:22;;;;;;;;;;;5.30;99.90;;;;;;4953454;28;19926;-76
2023/04/10 06:30:54;;;;;;;;;;;5.30;99.90;;;;;;4954235;28;19949;-76
2023/04/10 06:33:28;;;;;;;;;;;5.30;99.90;;;;;;4953850;28;20009;-76
2023/04/10 06:35:56;;;;;;;;;;;5.30;99.90;;;;;;4953121;28;19977;-77
2023/04/10 06:38:23;;;;;;;;;;;5.30;99.90;;;;;;4954538;28;19953;-77
2023/04/10 06:40:51;;;;;;;;;;;5.30;99.90;;;;;;4956844;28;19933;-76
2023/04/10 06:43:18;;;;;;;;;;;5.30;99.90;;;;;;4963464;28;19926;-77
2023/04/10 06:45:45;;;;;;;;;;;5.30;99.90;;;;;;4954873;28;19932;-77
2023/04/10 06:48:12;;;;;;;;;;;5.30;99.90;;;;;;4957120;28;19976;-77
2023/04/10 06:50:39;;;;;;;;;;;5.30;99.90;;;;;;4952728;28;20429;-77
2023/04/10 06:53:05;;;;;;;;;;;5.30;99.90;;;;;;4950249;28;19930;-77
2023/04/10 06:55:32;;;;;;;;;;;5.30;99.90;;;;;;4956321;28;19964;-76
2023/04/10 06:58:00;;;;;;;;;;;5.30;99.90;;;;;;4957402;28;20001;-77
2023/04/10 07:00:30;;;;;;;;;;;5.30;99.90;;;;;;4958961;28;19982;-77
2023/04/10 07:02:56;;;;;;;;;;;5.30;99.90;;;;;;4955707;28;20340;-77
2023/04/10 07:05:23;;;;;;;;;;;5.30;99.90;;;;;;4954036;28;19966;-77
2023/04/10 07:07:50;;;;;;;;;;;5.30;99.90;;;;;;4952946;28;20411;-76
2023/04/10 07:10:17;;;;;;;;;;;5.30;99.90;;;;;;4954458;28;19954;-76
2023/04/10 07:12:44;;;;;;;;;;;5.30;99.90;;;;;;4953474;28;19927;-76
2023/04/10 07:15:12;;;;;;;;;;;5.30;99.90;;;;;;4952412;28;19931;-76
2023/04/10 07:17:39;;;;;;;;;;;5.30;99.90;;;;;;4955519;28;19996;-77
2023/04/10 07:20:06;;;;;;;;;;;5.30;99.90;;;;;;4949127;28;19926;-77
2023/04/10 07:22:33;;;;;;;;;;;5.30;99.90;;;;;;4952423;28;19933;-76
2023/04/10 07:25:00;;;;;;;;;;;5.30;99.90;;;;;;4957322;28;19971;-76
2023/04/10 07:27:27;;;;;;;;;;;5.30;99.90;;;;;;4952988;28;19938;-77
2023/04/10 07:29:55;;;;;;;;;;;5.30;99.90;;;;;;4951103;28;19982;-77
2023/04/10 07:32:23;;;;;;;;;;;5.40;99.90;;;;;;4953998;28;19981;-77
2023/04/10 07:34:52;;;;;;;;;;;5.40;99.90;;;;;;4954442;28;19950;-77
2023/04/10 07:37:19;;;;;;;;;;;5.40;99.90;;;;;;4957027;28;20017;-77
2023/04/10 07:39:46;;;;;;;;;;;5.40;99.90;;;;;;4956466;28;20030;-77
2023/04/10 07:42:15;;;;;;;;;;;5.40;99.90;;;;;;4961570;28;19931;-77
2023/04/10 07:44:42;;;;;;;;;;;5.40;99.90;;;;;;4954854;28;19989;-76
2023/04/10 07:47:09;;;;;;;;;;;5.40;99.90;;;;;;4951128;28;19935;-77
2023/04/10 07:49:37;;;;;;;;;;;5.40;99.90;;;;;;4955374;28;20013;-77
2023/04/10 07:52:04;;;;;;;;;;;5.40;99.90;;;;;;4954503;28;19926;-77
2023/04/10 07:54:31;;;;;;;;;;;5.40;99.90;;;;;;4953300;28;20401;-77
2023/04/10 07:56:58;;;;;;;;;;;5.40;99.90;;;;;;4951177;28;19927;-77
2023/04/10 07:59:26;;;;;;;;;;;5.40;99.90;;;;;;4953383;28;20468;-77
2023/04/10 08:01:53;;;;;;;;;;;5.40;99.90;;;;;;4945833;28;19981;-77
2023/04/10 08:04:20;;;;;;;;;;;5.50;99.90;;;;;;4953249;28;19926;-76
2023/04/10 08:06:49;;;;;;;;;;;5.50;99.90;;;;;;4951519;28;20352;-77
2023/04/10 08:09:16;;;;;;;;;;;5.50;99.90;;;;;;4985008;28;19941;-77
2023/04/10 08:11:43;;;;;;;;;;;5.50;99.90;;;;;;4954431;28;20020;-75
2023/04/10 08:14:10;;;;;;;;;;;5.50;99.90;;;;;;4955755;28;20316;-77
2023/04/10 08:16:37;;;;;;;;;;;5.50;99.90;;;;;;4957576;28;19941;-77
2023/04/10 08:19:04;;;;;;;;;;;5.50;99.90;;;;;;4952613;28;20013;-77
2023/04/10 08:21:31;;;;;;;;;;;5.50;99.90;;;;;;4952899;28;19930;-77
2023/04/10 08:24:01;;;;;;;;;;;5.60;99.90;;;;;;4954172;28;19930;-76
2023/04/10 08:26:28;;;;;;;;;;;5.60;99.90;;;;;;4952061;28;19931;-77
2023/04/10 08:28:56;;;;;;;;;;;5.60;99.90;;;;;;4953700;28;19927;-77
2023/04/10 08:31:24;;;;;;;;;;;5.60;99.90;;;;;;4955508;28;19934;-76
2023/04/10 08:33:50;;;;;;;;;;;5.60;99.90;;;;;;4989755;28;19930;-77
2023/04/10 08:36:17;;;;;;;;;;;5.60;99.90;;;;;;5016229;23;19944;-79
2023/04/10 08:38:45;;;;;;;;;;;5.60;99.90;;;;;;4901692;29;20571;-78
2023/04/10 08:41:14;;;;;;;;;;;5.60;99.90;;;;;;4913933;29;20730;-80
2023/04/10 08:43:42;;;;;;;;;;;5.60;99.90;;;;;;4932900;29;19927;-77
2023/04/10 08:46:09;;;;;;;;;;;5.70;99.90;;;;;;4929940;29;19927;-80
2023/04/10 08:48:38;;;;;;;;;;;5.70;99.90;;;;;;4932607;29;20337;-79
2023/04/10 08:51:07;;;;;;;;;;;5.70;99.90;;;;;;4932987;29;20429;-79
2023/04/10 08:53:37;;;;;;;;;;;5.80;99.90;;;;;;4929198;29;19974;-77
2023/04/10 08:56:06;;;;;;;;;;;5.70;99.90;;;;;;4933321;29;19966;-78
2023/04/10 08:58:35;;;;;;;;;;;5.70;99.90;;;;;;4931549;29;20009;-79
2023/04/10 09:01:02;;;;;;;;;;;5.80;99.90;;;;;;4926286;29;19927;-76
2023/04/10 09:03:29;;;;;;;;;;;5.80;99.90;;;;;;4930486;29;19927;-79
2023/04/10 09:05:56;;;;;;;;;;;5.80;99.90;;;;;;4930991;29;19935;-78
2023/04/10 09:08:23;;;;;;;;;;;5.80;99.90;;;;;;4932484;29;19982;-78
2023/04/10 09:10:50;;;;;;;;;;;5.90;99.90;;;;;;4931692;29;20022;-77
2023/04/10 09:13:34;;;;;;;;;;;5.80;99.90;;;;;;4931107;29;19937;-77
2023/04/10 09:16:02;;;;;;;;;;;5.90;99.90;;;;;;4932597;29;19974;-78
2023/04/10 09:18:42;;;;;;;;;;;5.90;99.90;;;;;;4932755;29;19970;-79
2023/04/10 09:21:10;;;;;;;;;;;5.90;99.90;;;;;;4925630;29;19993;-78
2023/04/10 09:23:36;;;;;;;;;;;6.00;99.90;;;;;;4931984;29;19934;-77
2023/04/10 09:26:06;;;;;;;;;;;6.00;99.90;;;;;;4930540;29;19939;-77
2023/04/10 09:28:41;;;;;;;;;;;6.00;99.90;;;;;;4931482;29;20342;-78
2023/04/10 09:31:26;;;;;;;;;;;6.00;99.90;;;;;;4929326;29;20398;-77
2023/04/10 09:34:06;;;;;;;;;;;6.10;99.90;;;;;;4927746;29;19934;-78
2023/04/10 09:36:33;;;;;;;;;;;6.10;99.90;;;;;;4932630;29;19934;-78
2023/04/10 09:39:00;;;;;;;;;;;6.20;99.90;;;;;;4929359;29;19927;-80
2023/04/10 09:41:26;;;;;;;;;;;6.20;99.90;;;;;;4935288;29;19935;-78
2023/04/10 09:44:05;;;;;;;;;;;6.20;99.90;;;;;;4931740;29;19930;-78
2023/04/10 09:46:34;;;;;;;;;;;6.20;99.90;;;;;;4941609;28;19973;-78
2023/04/10 09:49:04;;;;;;;;;;;6.20;99.90;;;;;;4928686;29;20021;-78
2023/04/10 09:51:31;;;;;;;;;;;6.30;99.90;;;;;;4932129;28;19950;-78
2023/04/10 09:53:58;;;;;;;;;;;6.30;99.90;;;;;;4933156;29;20469;-79
2023/04/10 09:56:26;;;;;;;;;;;6.40;99.90;;;;;;4929953;29;20475;-78
2023/04/10 09:58:53;;;;;;;;;;;6.40;99.90;;;;;;4931176;29;19966;-78
2023/04/10 10:01:21;;;;;;;;;;;6.40;99.90;;;;;;4933342;29;19935;-81
2023/04/10 10:03:49;;;;;;;;;;;6.40;99.90;;;;;;4945363;28;19982;-77
2023/04/10 10:06:16;;;;;;;;;;;6.40;99.90;;;;;;4928622;29;19927;-78
2023/04/10 10:08:44;;;;;;;;;;;6.40;99.90;;;;;;4931636;29;19934;-78
2023/04/10 10:11:11;;;;;;;;;;;6.40;99.90;;;;;;4931606;29;19926;-79
2023/04/10 10:13:41;;;;;;;;;;;6.50;99.90;;;;;;4929460;29;19927;-77
2023/04/10 10:16:10;;;;;;;;;;;6.50;99.90;;;;;;4932367;29;20420;-78
2023/04/10 10:18:42;;;;;;;;;;;6.50;99.90;;;;;;4931493;29;20373;-78
2023/04/10 10:21:11;;;;;;;;;;;6.60;99.90;;;;;;4931361;29;19965;-78
2023/04/10 10:23:38;;;;;;;;;;;6.60;99.90;;;;;;4941606;28;19973;-78
2023/04/10 10:26:05;;;;;;;;;;;6.60;99.90;;;;;;4932172;29;19934;-80
2023/04/10 10:28:33;;;;;;;;;;;6.60;99.90;;;;;;4930211;29;19969;-78
2023/04/10 10:31:01;;;;;;;;;;;6.60;99.90;;;;;;4928004;29;19935;-78
2023/04/10 10:33:29;;;;;;;;;;;6.70;99.90;;;;;;4930778;29;19926;-80
2023/04/10 10:35:58;;;;;;;;;;;6.70;99.90;;;;;;4931991;29;19937;-78
2023/04/10 10:38:26;;;;;;;;;;;6.70;99.90;;;;;;4927869;29;20022;-78
2023/04/10 10:40:57;;;;;;;;;;;6.70;99.90;;;;;;4931389;29;20382;-78
2023/04/10 10:43:27;;;;;;;;;;;6.80;99.90;;;;;;4944581;29;20030;-78
2023/04/10 10:45:58;;;;;;;;;;;6.80;99.90;;;;;;4931688;28;19927;-77
2023/04/10 10:48:25;;;;;;;;;;;6.90;99.90;;;;;;4927307;29;19970;-77
2023/04/10 10:50:57;;;;;;;;;;;6.90;99.90;;;;;;4930212;29;19933;-78
2023/04/10 10:53:32;;;;;;;;;;;6.90;99.90;;;;;;4933422;29;19926;-78
2023/04/10 10:55:59;;;;;;;;;;;7.00;99.90;;;;;;4931886;29;19927;-78
2023/04/10 10:58:41;;;;;;;;;;;7.00;99.90;;;;;;4949160;28;20477;-78
2023/04/10 11:01:08;;;;;;;;;;;7.00;99.90;;;;;;4937686;29;19931;-77
2023/04/10 11:03:36;;;;;;;;;;;7.10;99.90;;;;;;4929393;29;19934;-78
2023/04/10 11:06:05;;;;;;;;;;;7.20;99.90;;;;;;4935370;29;19934;-78
2023/04/10 11:08:43;;;;;;;;;;;7.30;99.90;;;;;;4933614;29;19937;-78
2023/04/10 11:11:11;;;;;;;;;;;7.40;99.90;;;;;;4935425;29;19982;-78
2023/04/10 11:13:39;;;;;;;;;;;7.40;99.90;;;;;;4929991;29;20397;-77
2023/04/10 11:16:06;;;;;;;;;;;7.30;99.90;;;;;;4937132;29;20013;-78
2023/04/10 11:18:52;;;;;;;;;;;7.40;99.90;;;;;;4933270;29;19934;-78
2023/04/10 11:21:19;;;;;;;;;;;7.40;99.90;;;;;;4930554;29;19927;-79
2023/04/10 11:26:50;;;;;;;;;;;7.30;99.90;;;;;;5123034;27;19912;-78
2023/04/10 11:29:33;;;;;;;;;;;7.40;99.90;;;;;;5088482;28;19978;-79
2023/04/10 11:32:01;;;;;;;;;;;7.40;99.90;;;;;;5085448;28;19979;-78
2023/04/10 11:34:29;;;;;;;;;;;7.50;99.90;;;;;;5086957;28;19928;-78
2023/04/10 11:36:56;;;;;;;;;;;7.60;99.90;;;;;;5085457;28;20518;-78
2023/04/10 11:39:24;;;;;;;;;;;7.60;99.90;;;;;;5088282;28;20013;-78
2023/04/10 11:41:53;;;;;;;;;;;7.70;99.90;;;;;;5085400;28;19924;-76
2023/04/10 11:44:27;;;;;;;;;;;7.80;99.90;;;;;;5093508;28;19972;-76
2023/04/10 11:46:54;;;;;;;;;;;7.80;99.90;;;;;;5084471;28;19974;-76
2023/04/10 11:49:22;;;;;;;;;;;7.90;99.90;;;;;;5089350;28;20027;-81
2023/04/10 11:51:49;;;;;;;;;;;7.90;99.90;;;;;;5087837;28;19967;-76
2023/04/10 11:54:16;;;;;;;;;;;8.00;99.90;;;;;;5083874;28;20413;-79
2023/04/10 11:56:44;;;;;;;;;;;8.10;99.90;;;;;;5084365;28;20414;-76
2023/04/10 11:59:14;;;;;;;;;;;8.10;99.90;;;;;;5086396;28;20002;-76
2023/04/10 12:01:41;;;;;;;;;;;8.10;99.90;;;;;;5084932;28;20313;-78
2023/04/10 12:04:14;;;;;;;;;;;8.10;99.90;;;;;;5087377;28;20021;-76
2023/04/10 12:06:43;;;;;;;;;;;8.10;99.90;;;;;;5086639;28;20440;-76
2023/04/10 12:09:14;;;;;;;;;;;8.10;99.90;;;;;;5088800;28;19964;-76
2023/04/10 12:11:48;;;;;;;;;;;8.00;99.90;;;;;;5087849;28;19929;-76
2023/04/10 12:14:16;;;;;;;;;;;8.10;99.90;;;;;;5086294;28;20390;-76
2023/04/10 12:16:43;;;;;;;;;;;8.00;99.90;;;;;;5096977;28;19925;-77
2023/04/10 12:19:10;;;;;;;;;;;8.10;99.90;;;;;;5091881;28;19964;-78
2023/04/10 12:21:37;;;;;;;;;;;8.10;99.90;;;;;;5089700;28;20405;-76
2023/04/10 12:24:05;;;;;;;;;;;8.20;99.90;;;;;;5086507;28;20398;-76
2023/04/10 12:26:31;;;;;;;;;;;8.20;99.90;;;;;;5085413;28;19936;-76
2023/04/10 12:28:58;;;;;;;;;;;8.20;99.90;;;;;;5077828;28;19979;-78
2023/04/10 12:31:30;;;;;;;;;;;8.10;99.90;;;;;;5089114;28;20309;-76
2023/04/10 12:33:57;;;;;;;;;;;8.20;99.90;;;;;;5085533;28;19936;-77
2023/04/10 12:36:25;;;;;;;;;;;8.30;99.90;;;;;;5077279;28;19936;-77
2023/04/10 12:38:52;;;;;;;;;;;8.30;99.90;;;;;;5070941;28;19924;-78
2023/04/10 12:41:23;;;;;;;;;;;8.30;99.90;;;;;;5070018;28;20378;-76
2023/04/10 12:43:51;;;;;;;;;;;8.30;99.90;;;;;;5074701;28;19953;-77
2023/04/10 12:46:25;;;;;;;;;;;8.40;99.90;;;;;;5070995;28;19974;-77
2023/04/10 12:48:53;;;;;;;;;;;8.50;99.90;;;;;;5075817;28;19970;-76
2023/04/10 12:51:20;;;;;;;;;;;8.60;99.90;;;;;;5072865;28;19924;-76
2023/04/10 12:53:46;;;;;;;;;;;8.60;99.90;;;;;;5074473;28;19983;-80
2023/04/10 12:56:14;;;;;;;;;;;8.70;99.90;;;;;;5068201;28;19924;-78
2023/04/10 12:58:41;;;;;;;;;;;8.60;99.90;;;;;;5089779;28;19974;-76
2023/04/10 13:01:09;;;;;;;;;;;8.60;99.90;;;;;;5070541;28;19929;-76
2023/04/10 13:03:36;;;;;;;;;;;8.60;99.90;;;;;;5083602;28;19932;-76
2023/04/10 13:06:04;;;;;;;;;;;8.70;99.90;;;;;;5070464;28;19936;-78
2023/04/10 13:08:32;;;;;;;;;;;8.80;99.90;;;;;;5076583;28;19925;-76
2023/04/10 13:11:02;;;;;;;;;;;8.80;99.90;;;;;;5073366;28;19955;-76
2023/04/10 13:13:30;;;;;;;;;;;8.80;99.90;;;;;;5075211;28;20010;-76
2023/04/10 13:15:57;;;;;;;;;;;8.90;99.90;;;;;;5070020;28;19956;-75
2023/04/10 13:18:23;;;;;;;;;;;9.00;99.90;;;;;;5071420;28;20345;-76
2023/04/10 13:20:50;;;;;;;;;;;9.00;99.90;;;;;;5069761;28;19944;-76
2023/04/10 13:23:19;;;;;;;;;;;8.90;99.90;;;;;;5068464;28;20011;-78
2023/04/10 13:25:46;;;;;;;;;;;9.10;99.90;;;;;;5074268;28;20405;-77
2023/04/10 13:28:14;;;;;;;;;;;9.20;99.90;;;;;;5074539;28;19982;-75
2023/04/10 13:30:41;;;;;;;;;;;9.30;99.90;;;;;;5074231;28;19925;-76
2023/04/10 13:33:08;;;;;;;;;;;9.40;99.90;;;;;;5075876;28;19959;-77
2023/04/10 13:35:35;;;;;;;;;;;9.50;99.90;;;;;;5070465;28;20023;-78
2023/04/10 13:38:02;;;;;;;;;;;9.50;99.90;;;;;;5069219;28;20745;-77
2023/04/10 13:40:30;;;;;;;;;;;9.50;99.90;;;;;;5068535;28;19928;-76
2023/04/10 13:42:57;;;;;;;;;;;9.60;99.90;;;;;;5071768;28;19928;-76
2023/04/10 13:45:24;;;;;;;;;;;9.70;99.90;;;;;;5073881;28;20524;-76
2023/04/10 13:47:51;;;;;;;;;;;9.70;99.90;;;;;;5071803;22;20528;-90
2023/04/10 13:50:18;;;;;;;;;;;9.70;99.90;;;;;;5045533;28;19978;-90
2023/04/10 13:52:44;;;;;;;;;;;9.80;99.90;;;;;;5051119;28;19928;-91
2023/04/10 13:55:11;;;;;;;;;;;9.90;99.90;;;;;;5033095;28;20007;-92
2023/04/10 13:57:39;;;;;;;;;;;9.80;99.90;;;;;;5048213;28;19979;-90
2023/04/10 14:00:07;;;;;;;;;;;9.90;99.90;;;;;;5056731;28;19971;-94
2023/04/10 14:02:40;;;;;;;;;;;10.00;99.90;;;;;;5061035;28;19929;-91
2023/04/10 14:05:07;;;;;;;;;;;10.20;99.90;;;;;;5056364;28;20091;-91
2023/04/10 14:07:34;;;;;;;;;;;10.30;99.90;;;;;;5046124;28;19924;-89
2023/04/10 14:10:01;;;;;;;;;;;10.30;99.90;;;;;;5048105;28;20252;-90
2023/04/10 14:12:28;;;;;;;;;;;10.30;99.90;;;;;;5038032;28;19976;-91
2023/04/10 14:14:56;;;;;;;;;;;10.30;99.90;;;;;;5047574;28;19932;-93
2023/04/10 14:17:23;;;;;;;;;;;10.40;99.90;;;;;;5059203;28;19978;-91
2023/04/10 14:19:52;;;;;;;;;;;10.40;99.90;;;;;;5051661;28;20292;-90
2023/04/10 14:22:19;;;;;;;;;;;10.40;99.90;;;;;;5047563;28;19925;-92
2023/04/10 14:24:46;;;;;;;;;;;10.50;99.90;;;;;;5047056;28;20352;-91
2023/04/10 14:27:13;;;;;;;;;;;10.50;99.90;;;;;;5053127;28;20017;-93
2023/04/10 14:29:40;;;;;;;;;;;10.40;99.90;;;;;;5058016;28;19968;-91
2023/04/10 14:32:09;;;;;;;;;;;10.40;99.90;;;;;;5063315;28;19932;-93
2023/04/10 14:34:36;;;;;;;;;;;;;;;;;;5047359;28;19951;-91
2023/04/10 14:37:03;;;;;;;;;;;10.70;99.90;;;;;;5052496;28;19971;-90
2023/04/10 14:39:30;;;;;;;;;;;10.80;99.90;;;;;;5052668;28;19925;-91
2023/04/10 14:41:57;;;;;;;;;;;10.80;99.90;;;;;;5050577;28;19928;-90
2023/04/10 14:58:31;;;;;;;;;;;11.00;99.90;;;;;;5913247;22;19932;-81
2023/04/10 15:00:58;;;;;;;;;;;11.10;99.90;;;;;;5031224;28;19950;-81
2023/04/10 15:03:25;;;;;;;;;;;11.10;99.90;;;;;;5042559;28;19924;-81
2023/04/10 15:05:58;;;;;;;;;;;11.00;99.90;;;;;;5040667;28;20380;-81